Mountain Village, Alaska
Current Conditions -  °F | °C
As of 8:56 PM on Friday 19 Dec 2014 (Local Time) from PAMO Reporting Station
Clear Clear  
Wind Chill: -10°   Ceiling: Unl
Heat Index:   Visibility: 10mi
Dew Point:   Wind: 15mph
Humidity: 83%   Direction: 40°NE
Pressure: 29.22"   Gusts: NA
Location:  62.09°N, 163.73°W
Report Text: PAMO 200556Z AUTO 04013KT 10SM CLR M14/M16 A2922 RMK AO2 TSNO 50003 T11381161 11094 21138 SLP781 $
Loading
Personal Weather Stations






























Interactive Weather Map New forecast layout! Learn more

10-Day Weather Forecast

Advertisements
Track Severe Weather on mobile